createdAt,value
2023-10-09T17:58:13.126Z,76.10
2023-10-09T18:00:42.433Z,76.10
2023-10-09T18:03:09.403Z,76.00
2023-10-09T18:05:36.419Z,75.80
2023-10-09T18:08:03.603Z,75.70
2023-10-09T18:10:33.367Z,75.70
2023-10-09T18:13:00.247Z,75.70
2023-10-09T18:15:26.999Z,75.20
2023-10-09T18:17:55.243Z,74.80
2023-10-09T18:20:22.058Z,74.60
2023-10-09T18:22:48.882Z,74.50
2023-10-09T18:25:15.687Z,74.60
2023-10-09T18:27:42.562Z,74.60
2023-10-09T18:30:09.666Z,74.50
2023-10-09T18:32:36.438Z,74.50
2023-10-09T18:35:04.822Z,74.60
2023-10-09T18:37:31.830Z,74.80
2023-10-09T18:39:58.568Z,74.70
2023-10-09T18:42:25.315Z,74.80
2023-10-09T18:44:52.102Z,74.50
2023-10-09T18:47:18.881Z,74.40
2023-10-09T18:49:45.694Z,74.30
2023-10-09T18:52:13.812Z,74.40
2023-10-09T18:54:40.577Z,74.50
2023-10-09T18:57:07.325Z,74.60
2023-10-09T18:59:34.122Z,74.80
2023-10-09T19:02:00.987Z,74.90
2023-10-09T19:04:27.787Z,75.30
2023-10-09T19:06:54.568Z,75.10
2023-10-09T19:09:22.690Z,75.10
2023-10-09T19:11:49.394Z,75.10
2023-10-09T19:14:16.149Z,75.10
2023-10-09T19:16:43.040Z,75.10
2023-10-09T19:19:09.865Z,75.10
2023-10-09T19:21:38.365Z,75.10
2023-10-09T19:24:05.256Z,75.30
2023-10-09T19:26:33.355Z,75.10
2023-10-09T19:29:00.094Z,75.20
2023-10-09T19:31:26.852Z,75.10
2023-10-09T19:33:53.571Z,75.10
2023-10-09T19:36:20.262Z,75.10
2023-10-09T19:38:47.118Z,75.10
2023-10-09T19:41:13.848Z,75.00
2023-10-09T19:43:41.948Z,75.00
2023-10-09T19:46:08.732Z,74.90
2023-10-09T19:48:35.551Z,74.90
2023-10-09T19:51:02.276Z,74.80
2023-10-09T19:53:29.048Z,74.60
2023-10-09T19:55:55.858Z,74.70
2023-10-09T19:58:22.658Z,74.60
2023-10-09T20:00:51.375Z,74.60
2023-10-09T20:03:18.183Z,74.60
2023-10-09T20:05:44.985Z,74.80
2023-10-09T20:08:11.752Z,74.80
2023-10-09T20:10:38.525Z,74.80
2023-10-09T20:13:05.227Z,74.80
2023-10-09T20:15:31.953Z,74.70
2023-10-09T20:18:00.117Z,74.70
2023-10-09T20:20:26.912Z,74.60
2023-10-09T20:22:53.722Z,74.60
2023-10-09T20:25:20.511Z,74.60
2023-10-09T20:27:47.237Z,74.60
2023-10-09T20:30:13.971Z,74.50
2023-10-09T20:32:40.828Z,74.50
2023-10-09T20:35:09.765Z,74.50
2023-10-09T20:37:36.486Z,74.50
2023-10-09T20:40:03.513Z,74.50
2023-10-09T20:42:30.256Z,74.60
2023-10-09T20:44:56.981Z,74.40
2023-10-09T20:47:23.714Z,74.50
2023-10-09T20:49:50.602Z,74.50
2023-10-09T20:52:18.677Z,74.40
2023-10-09T20:54:45.365Z,74.40
2023-10-09T20:57:12.063Z,74.40
2023-10-09T20:59:38.784Z,74.20
2023-10-09T21:02:06.147Z,74.20
2023-10-09T21:04:32.923Z,74.20
2023-10-09T21:06:59.629Z,74.00
2023-10-09T21:09:27.735Z,73.90
2023-10-09T21:11:54.459Z,73.80
2023-10-09T21:14:21.270Z,73.70
2023-10-09T21:16:48.169Z,73.50
2023-10-09T21:19:15.146Z,73.30
2023-10-09T21:21:42.006Z,73.30
2023-10-09T21:24:08.769Z,73.40
2023-10-09T21:26:36.881Z,73.60
2023-10-09T21:29:03.631Z,73.60
2023-10-09T21:31:30.381Z,73.50
2023-10-09T21:33:57.171Z,73.40
2023-10-09T21:36:23.901Z,73.40
2023-10-09T21:38:50.605Z,73.30
2023-10-09T21:41:17.666Z,73.50
2023-10-09T21:43:45.843Z,73.30
2023-10-09T21:46:13.150Z,73.40
2023-10-09T21:48:39.885Z,73.40
2023-10-09T21:51:07.279Z,73.40
2023-10-09T21:53:34.055Z,73.30
2023-10-09T21:56:04.283Z,73.40
2023-10-09T21:58:31.029Z,73.30
2023-10-09T22:00:59.141Z,73.30
2023-10-09T22:03:26.107Z,73.30
2023-10-09T22:05:52.947Z,73.30
2023-10-09T22:08:19.729Z,73.30
2023-10-09T22:10:46.483Z,73.20
2023-10-09T22:13:13.230Z,73.20
2023-10-09T22:15:39.965Z,73.20
2023-10-09T22:18:08.157Z,73.20
2023-10-09T22:20:34.873Z,73.20
2023-10-09T22:23:01.681Z,73.20
2023-10-09T22:25:28.414Z,73.20
2023-10-09T22:27:55.190Z,73.20
2023-10-09T22:30:21.909Z,73.20
2023-10-09T22:32:48.753Z,73.20
2023-10-09T22:35:16.917Z,73.20
2023-10-09T22:37:43.649Z,73.20
2023-10-09T22:40:10.395Z,73.20
2023-10-09T22:42:37.127Z,73.20
2023-10-09T22:45:04.272Z,73.20
2023-10-09T22:47:31.039Z,73.20
2023-10-09T22:49:57.976Z,73.30
2023-10-09T22:52:26.101Z,73.20
2023-10-09T22:54:52.804Z,73.30
2023-10-09T22:57:19.524Z,73.30
2023-10-09T22:59:46.505Z,73.30
2023-10-09T23:02:13.487Z,73.30
2023-10-09T23:04:40.357Z,73.30
2023-10-09T23:07:07.068Z,73.40
2023-10-09T23:09:35.129Z,73.40
2023-10-09T23:12:01.812Z,73.40
2023-10-09T23:14:28.720Z,73.40
2023-10-09T23:16:55.820Z,73.40
2023-10-09T23:19:22.549Z,73.40
2023-10-09T23:21:49.267Z,73.30
2023-10-09T23:24:15.970Z,73.30
2023-10-09T23:26:44.033Z,73.40
2023-10-09T23:29:10.813Z,73.40
2023-10-09T23:31:37.711Z,73.40
2023-10-09T23:34:04.478Z,73.40
2023-10-09T23:36:31.203Z,73.40
2023-10-09T23:38:57.929Z,73.40
2023-10-09T23:41:24.637Z,73.40
2023-10-09T23:43:52.716Z,73.40
2023-10-09T23:46:19.517Z,73.40
2023-10-09T23:48:46.256Z,73.40
2023-10-09T23:51:12.962Z,73.50
2023-10-09T23:53:39.650Z,74.20
2023-10-09T23:56:06.611Z,73.40
2023-10-09T23:58:33.349Z,74.20
